.
WxDataArchive / Data Records for 2007-10-17
2007-10-16 October 2007 2007-10-18

Data Records for Wednesday, 17 October 2007

Time	Temp	Chill	HIndex	Humid	Dewpt	 Wind 	HiWind	WindDir	Rain 	Barom 
-----	----	-----	------	-----	-----	------	------	-------	-----	----- 
00:00	61.0	61.0	61.0	96	59.8	0	1	68	0.00	29.917 
00:05	61.0	61.0	61.0	96	59.8	0	2	68	0.00	29.915 
00:10	61.0	61.0	61.0	96	59.8	0	1	68	0.00	29.915 
00:15	60.9	60.9	60.9	96	59.7	0	2	68	0.00	29.914 
00:20	60.9	60.9	60.9	96	59.7	0	1	68	0.00	29.913 
00:25	60.9	60.9	60.9	96	59.7	0	2	68	0.00	29.912 
00:30	60.7	60.7	60.7	96	59.6	0	1	270	0.00	29.914 
00:35	60.4	60.4	60.4	96	59.3	0	1	270	0.00	29.914 
00:40	60.2	60.2	60.2	96	59.1	0	0	---	0.00	29.918 
00:45	60.2	60.2	60.2	96	59.1	0	1	270	0.00	29.918 
00:50	60.2	60.2	60.2	96	59.1	0	0	---	0.00	29.920 
00:55	60.1	60.1	60.1	96	59.0	0	1	270	0.00	29.920 
01:00	59.9	59.9	59.9	96	58.8	0	0	---	0.00	29.923 
01:05	59.8	59.8	59.8	96	58.7	0	0	---	0.00	29.921 
01:10	59.6	59.6	59.6	96	58.5	0	0	---	0.00	29.922 
01:15	59.5	59.5	59.5	96	58.4	0	0	---	0.00	29.924 
01:20	59.3	59.3	59.3	96	58.2	0	0	---	0.00	29.926 
01:25	59.3	59.3	59.3	96	58.2	0	0	---	0.00	29.926 
01:30	59.2	59.2	59.2	96	58.1	0	0	---	0.00	29.927 
01:35	59.0	59.0	59.0	96	57.9	0	0	---	0.00	29.927 
01:40	59.2	59.2	59.2	96	58.1	0	1	270	0.00	29.928 
01:45	59.2	59.2	59.2	96	58.1	0	0	---	0.00	29.927 
01:50	59.3	59.3	59.3	96	58.2	0	0	---	0.00	29.930 
01:55	59.3	59.3	59.3	96	58.2	0	0	---	0.00	29.932 
02:00	59.2	59.2	59.2	96	58.1	0	0	---	0.00	29.931 
02:05	59.2	59.2	59.2	96	58.1	0	0	---	0.00	29.929 
02:10	59.0	59.0	59.0	96	57.9	0	0	---	0.00	29.930 
02:15	58.9	58.9	58.9	96	57.8	0	1	270	0.00	29.931 
02:20	59.0	59.0	59.0	96	57.9	0	1	270	0.00	29.931 
02:25	58.9	58.9	58.9	96	57.8	0	0	---	0.00	29.931 
02:30	58.6	58.6	58.6	96	57.5	0	0	---	0.00	29.931 
02:35	58.4	58.4	58.4	96	57.3	0	0	---	0.00	29.931 
02:40	58.1	58.1	58.1	96	57.0	0	0	---	0.00	29.932 
02:45	58.0	58.0	58.0	97	57.2	0	0	---	0.00	29.932 
02:50	58.1	58.1	58.1	97	57.3	0	1	270	0.00	29.930 
02:55	58.1	58.1	58.1	97	57.3	0	0	---	0.00	29.929 
03:00	58.0	58.0	58.0	97	57.2	0	1	270	0.00	29.931 
03:05	58.0	58.0	58.0	97	57.2	0	0	---	0.00	29.932 
03:10	58.0	58.0	58.0	97	57.2	0	0	---	0.00	29.933 
03:15	57.8	57.8	57.8	97	57.0	0	0	---	0.00	29.935 
03:20	57.6	57.6	57.6	97	56.8	0	0	---	0.00	29.935 
03:25	57.5	57.5	57.5	97	56.7	0	0	---	0.00	29.939 
03:30	57.3	57.3	57.3	97	56.5	0	0	---	0.00	29.941 
03:35	57.2	57.2	57.2	97	56.4	0	0	---	0.00	29.941 
03:40	57.3	57.3	57.3	97	56.5	0	1	270	0.00	29.941 
03:45	57.2	57.2	57.2	97	56.4	0	1	270	0.00	29.941 
03:50	57.2	57.2	57.2	97	56.4	0	1	270	0.00	29.941 
03:55	57.2	57.2	57.2	97	56.4	0	1	270	0.00	29.942 
04:00	57.0	57.0	57.0	97	56.2	0	1	270	0.00	29.943 
04:05	56.7	56.7	56.7	97	55.9	0	0	---	0.00	29.945 
04:10	56.6	56.6	56.6	97	55.8	0	0	---	0.00	29.946 
04:15	56.5	56.5	56.5	97	55.7	0	0	---	0.00	29.946 
04:20	56.3	56.3	56.3	97	55.5	0	0	---	0.00	29.945 
04:25	56.0	56.0	56.0	97	55.2	0	0	---	0.00	29.947 
04:30	55.7	55.7	55.7	97	54.9	0	0	---	0.00	29.948 
04:35	55.4	55.4	55.4	97	54.6	0	0	---	0.00	29.951 
04:40	55.1	55.1	55.1	97	54.3	0	0	---	0.00	29.950 
04:45	54.8	54.8	54.8	97	54.0	0	0	---	0.00	29.951 
04:50	54.7	54.7	54.7	97	53.9	0	0	---	0.00	29.955 
04:55	54.2	54.2	54.2	97	53.4	0	0	---	0.00	29.957 
05:00	53.9	53.9	53.9	97	53.1	0	0	---	0.00	29.956 
05:05	53.6	53.6	53.6	97	52.8	0	0	---	0.00	29.960 
05:10	53.5	53.5	53.5	97	52.7	0	0	---	0.00	29.962 
05:15	53.2	53.2	53.2	96	52.1	0	0	---	0.00	29.964 
05:20	52.9	52.9	52.9	96	51.8	0	0	---	0.00	29.964 
05:25	52.8	52.8	52.8	96	51.7	0	0	---	0.00	29.964 
05:30	52.6	52.6	52.6	96	51.5	0	0	---	0.00	29.964 
05:35	52.3	52.3	52.3	96	51.2	0	0	---	0.00	29.965 
05:40	52.2	52.2	52.2	97	51.4	0	0	---	0.00	29.965 
05:45	52.0	52.0	52.0	97	51.2	0	0	---	0.00	29.965 
05:50	51.9	51.9	51.9	97	51.1	0	0	---	0.00	29.965 
05:55	51.7	51.7	51.7	97	50.9	0	0	---	0.00	29.964 
06:00	51.6	51.6	51.6	97	50.8	0	0	---	0.00	29.965 
06:05	51.4	51.4	51.4	97	50.6	0	0	---	0.00	29.969 
06:10	51.3	51.3	51.3	97	50.5	0	0	---	0.00	29.971 
06:15	51.1	51.1	51.1	97	50.3	0	0	---	0.00	29.971 
06:20	51.0	51.0	51.0	97	50.2	0	0	---	0.00	29.971 
06:25	50.7	50.7	50.7	97	49.9	0	0	---	0.00	29.973 
06:30	50.5	50.5	50.5	97	49.7	0	0	---	0.00	29.974 
06:35	50.4	50.4	50.4	97	49.6	0	0	---	0.00	29.978 
06:40	50.2	50.2	50.2	97	49.4	0	0	---	0.01	29.979 
06:45	50.2	50.2	50.2	97	49.4	0	0	---	0.00	29.977 
06:50	50.1	50.1	50.1	97	49.3	0	0	---	0.00	29.976 
06:55	50.1	50.1	50.1	97	49.3	0	0	---	0.00	29.977 
07:00	50.1	50.1	50.1	97	49.3	0	0	---	0.00	29.981 
07:05	49.9	49.9	49.9	97	49.1	0	0	---	0.00	29.983 
07:10	49.9	49.9	49.9	97	49.1	0	0	---	0.00	29.985 
07:15	50.1	50.1	50.1	97	49.3	0	0	---	0.00	29.985 
07:20	50.1	50.1	50.1	97	49.3	0	0	---	0.00	29.987 
07:25	50.1	50.1	50.1	97	49.3	0	0	---	0.00	29.988 
07:30	50.2	50.2	50.2	97	49.4	0	0	---	0.00	29.988 
07:35	50.4	50.4	50.4	97	49.6	0	0	---	0.00	29.992 
07:40	50.5	50.5	50.5	97	49.7	0	0	---	0.00	29.994 
07:45	50.8	50.8	50.8	97	50.0	0	0	---	0.00	29.996 
07:50	51.0	51.0	51.0	97	50.2	0	0	---	0.00	29.997 
07:55	51.1	51.1	51.1	97	50.3	0	0	---	0.00	29.998 
08:00	51.7	51.7	51.7	97	50.9	0	0	---	0.00	29.995 
08:05	52.3	52.3	52.3	97	51.5	0	0	---	0.00	29.995 
08:10	52.8	52.8	52.8	97	52.0	0	0	---	0.00	29.992 
08:15	53.5	53.5	53.5	98	52.9	0	0	---	0.00	29.987 
08:20	54.5	54.5	54.5	98	53.9	0	0	---	0.00	29.986 
08:25	55.4	55.4	55.4	98	54.8	0	1	270	0.00	29.988 
08:30	56.3	56.3	56.3	98	55.7	0	1	270	0.00	29.988 
08:35	56.7	56.7	56.7	98	56.1	0	1	270	0.00	29.987 
08:40	57.2	57.2	57.2	98	56.6	0	2	180	0.00	29.985 
08:45	57.6	57.6	57.6	98	57.0	0	1	180	0.00	29.986 
08:50	58.3	58.3	58.3	98	57.7	0	1	180	0.00	29.988 
08:55	58.7	58.7	58.7	98	58.1	0	1	180	0.00	29.985 
09:00	59.0	59.0	59.0	98	58.4	0	0	---	0.00	29.983 
09:05	58.9	58.9	58.9	98	58.3	0	1	180	0.00	29.984 
09:10	58.9	58.9	58.9	98	58.3	0	1	180	0.00	29.980 
09:15	59.3	59.3	59.3	98	58.7	0	1	180	0.00	29.985 
09:20	59.8	59.8	59.8	97	58.9	0	1	180	0.00	29.988 
09:25	60.2	60.2	60.2	97	59.3	0	1	180	0.00	29.988 
09:30	60.4	60.4	60.4	96	59.3	0	1	180	0.00	29.986 
09:35	61.0	61.0	61.0	94	59.3	0	1	180	0.00	29.982 
09:40	61.6	61.6	61.6	90	58.6	0	2	180	0.00	29.980 
09:45	62.1	62.1	62.1	84	57.2	0	1	180	0.00	29.982 
09:50	62.6	62.6	62.6	82	57.0	0	1	180	0.00	29.979 
09:55	63.2	63.2	63.2	82	57.6	1	3	158	0.00	29.977 
10:00	64.0	64.0	64.0	81	58.0	0	2	112	0.00	29.977 
10:05	64.5	64.5	64.5	78	57.5	1	3	112	0.00	29.978 
10:10	64.8	64.8	64.8	79	58.1	1	3	112	0.00	29.974 
10:15	65.2	65.2	65.2	77	57.8	1	3	112	0.00	29.974 
10:20	65.3	65.3	65.3	77	57.9	0	2	112	0.00	29.973 
10:25	65.8	65.8	65.8	77	58.4	0	2	202	0.00	29.974 
10:30	66.1	66.1	66.1	74	57.6	0	2	202	0.00	29.974 
10:35	66.4	66.4	66.4	73	57.5	1	3	248	0.00	29.973 
10:40	66.8	66.8	66.8	72	57.5	1	3	90	0.00	29.971 
10:45	67.1	67.1	67.1	70	57.0	1	3	90	0.00	29.971 
10:50	67.3	67.3	67.3	70	57.2	1	3	135	0.00	29.970 
10:55	67.8	67.8	67.8	72	58.4	1	2	112	0.00	29.969 
11:00	68.4	68.4	68.4	69	57.8	1	3	112	0.00	29.967 
11:05	68.8	68.8	68.8	67	57.4	1	4	112	0.00	29.963 
11:10	68.9	68.9	68.9	66	57.1	1	3	90	0.00	29.958 
11:15	69.1	69.1	69.1	65	56.8	1	4	90	0.00	29.958 
11:20	69.6	69.6	69.6	64	56.9	1	4	90	0.00	29.960 
11:25	69.6	69.6	69.6	62	56.0	2	6	90	0.00	29.954 
11:30	69.4	69.4	69.4	62	55.8	2	6	112	0.00	29.954 
11:35	69.4	69.4	69.4	61	55.4	1	4	90	0.00	29.952 
11:40	69.4	69.4	69.4	62	55.8	1	4	248	0.00	29.950 
11:45	69.8	69.8	69.8	63	56.6	1	4	112	0.00	29.947 
11:50	70.1	70.1	70.1	59	55.1	1	3	270	0.00	29.942 
11:55	70.6	70.6	70.6	57	54.6	1	7	90	0.00	29.941 
12:00	70.9	70.9	70.9	58	55.4	1	3	90	0.00	29.940 
12:05	71.1	71.1	71.1	59	56.0	1	2	90	0.00	29.939 
12:10	71.1	71.1	71.1	57	55.1	1	5	270	0.00	29.938 
12:15	71.3	71.3	71.3	55	54.3	1	5	248	0.00	29.938 
12:20	71.3	71.3	71.3	56	54.8	2	5	112	0.00	29.934 
12:25	71.3	71.3	71.3	57	55.3	1	4	112	0.00	29.932 
12:30	71.5	71.5	71.5	55	54.5	1	4	112	0.00	29.928 
12:35	71.6	71.6	71.6	55	54.6	1	4	90	0.00	29.923 
12:40	71.8	71.8	71.8	53	53.7	1	4	90	0.00	29.922 
12:45	71.8	71.8	71.8	55	54.7	1	3	90	0.00	29.920 
12:50	72.0	72.0	72.0	54	54.4	2	5	90	0.00	29.919 
12:55	71.8	71.8	71.8	53	53.7	2	4	112	0.00	29.912 
13:00	71.8	71.8	71.8	54	54.2	2	5	90	0.00	29.907 
13:05	71.6	71.6	71.6	52	53.0	1	4	90	0.00	29.908 
13:10	71.6	71.6	71.6	54	54.1	1	5	90	0.00	29.907 
13:15	71.8	71.8	71.8	52	53.2	2	5	112	0.00	29.902 
13:20	71.8	71.8	71.8	50	52.1	2	5	90	0.00	29.900 
13:25	71.6	71.6	71.6	52	53.0	2	5	112	0.00	29.895 
13:30	72.0	72.0	72.0	51	52.9	1	2	112	0.00	29.892 
13:35	72.3	72.3	72.3	50	52.6	2	5	90	0.00	29.891 
13:40	72.3	72.3	72.3	50	52.6	1	4	135	0.00	29.886 
13:45	72.8	72.8	72.8	51	53.6	1	5	135	0.00	29.882 
13:50	72.7	72.7	72.7	53	54.6	2	5	90	0.00	29.882 
13:55	72.5	72.5	72.5	51	53.3	2	6	90	0.00	29.884 
14:00	72.7	72.7	72.7	50	53.0	1	3	112	0.00	29.876 
14:05	73.0	73.0	73.0	50	53.2	2	6	135	0.00	29.876 
14:10	73.0	73.0	73.0	49	52.7	1	4	112	0.00	29.877 
14:15	72.8	72.8	72.8	51	53.6	1	4	90	0.00	29.880 
14:20	73.0	73.0	73.0	51	53.8	1	4	90	0.00	29.879 
14:25	73.2	73.2	73.2	53	55.0	0	5	90	0.00	29.879 
14:30	73.2	73.2	73.2	50	53.4	1	4	90	0.00	29.877 
14:35	73.3	73.3	73.3	47	51.8	1	4	112	0.00	29.876 
14:40	73.2	73.2	73.2	50	53.4	1	4	112	0.00	29.872 
14:45	73.0	73.0	73.0	50	53.2	1	4	112	0.00	29.868 
14:50	73.0	73.0	73.0	50	53.2	1	4	90	0.00	29.865 
14:55	73.0	73.0	73.0	50	53.2	1	2	90	0.00	29.863 
15:00	73.2	73.2	73.2	49	52.9	1	3	112	0.00	29.862 
15:05	73.0	73.0	73.0	49	52.7	2	6	90	0.00	29.861 
15:10	72.8	72.8	72.8	50	53.1	1	4	90	0.00	29.861 
15:15	72.8	72.8	72.8	51	53.6	1	2	112	0.00	29.866 
15:20	73.2	73.2	73.2	51	54.0	1	3	90	0.00	29.869 
15:25	73.3	73.3	73.3	50	53.5	1	4	112	0.00	29.869 
15:30	73.2	73.2	73.2	48	52.3	2	6	112	0.00	29.866 
15:35	73.0	73.0	73.0	49	52.7	1	4	112	0.00	29.865 
15:40	73.0	73.0	73.0	50	53.2	1	4	112	0.00	29.872 
15:45	73.0	73.0	73.0	50	53.2	0	2	112	0.00	29.869 
15:50	72.7	72.7	72.7	50	53.0	1	2	112	0.00	29.869 
15:55	72.3	72.3	72.3	51	53.1	1	3	90	0.00	29.873 
16:00	72.1	72.1	72.1	51	53.0	1	5	90	0.00	29.869 
16:05	72.0	72.0	72.0	53	53.9	1	3	90	0.00	29.863 
16:10	71.8	71.8	71.8	54	54.2	1	3	90	0.00	29.862 
16:15	71.8	71.8	71.8	54	54.2	1	3	90	0.00	29.860 
16:20	71.8	71.8	71.8	54	54.2	1	3	90	0.00	29.860 
16:25	71.8	71.8	71.8	54	54.2	1	3	90	0.00	29.851 
16:30	71.8	71.8	71.8	55	54.7	1	3	90	0.00	29.851 
16:35	71.8	71.8	71.8	56	55.2	0	2	90	0.00	29.854 
16:40	71.6	71.6	71.6	55	54.6	1	2	90	0.00	29.849 
16:45	71.5	71.5	71.5	57	55.5	0	2	90	0.00	29.848 
16:50	71.3	71.3	71.3	57	55.3	0	1	90	0.00	29.849 
16:55	70.9	70.9	70.9	58	55.4	0	1	90	0.00	29.847 
17:00	70.9	70.9	70.9	58	55.4	1	2	90	0.00	29.840 
17:05	70.8	70.8	70.8	58	55.3	1	3	90	0.00	29.845 
17:10	70.8	70.8	70.8	62	57.1	0	2	90	0.00	29.848 
17:15	70.4	70.4	70.4	64	57.6	0	1	90	0.00	29.852 
17:20	69.8	69.8	69.8	70	59.6	0	1	90	0.01	29.847 
17:25	68.9	68.9	68.9	72	59.5	0	1	90	0.00	29.842 
17:30	68.1	68.1	68.1	73	59.1	0	1	90	0.00	29.842 
17:35	67.8	67.8	67.8	75	59.6	0	1	90	0.00	29.836 
17:40	67.4	67.4	67.4	75	59.2	0	1	90	0.00	29.837 
17:45	67.3	67.3	67.3	76	59.5	0	1	90	0.00	29.838 
17:50	67.3	67.3	67.3	76	59.5	0	0	---	0.00	29.838 
17:55	67.1	67.1	67.1	76	59.3	0	1	90	0.00	29.837 
18:00	67.1	67.1	67.1	76	59.3	1	3	90	0.00	29.830 
18:05	67.3	67.3	67.3	76	59.5	0	2	90	0.00	29.825 
18:10	67.3	67.3	67.3	76	59.5	0	1	90	0.00	29.830 
18:15	67.3	67.3	67.3	76	59.5	0	1	90	0.00	29.828 
18:20	67.3	67.3	67.3	75	59.1	0	1	90	0.00	29.832 
18:25	67.3	67.3	67.3	75	59.1	0	1	90	0.00	29.833 
18:30	67.4	67.4	67.4	74	58.8	0	2	68	0.00	29.828 
18:35	67.6	67.6	67.6	74	59.0	0	1	68	0.00	29.829 
18:40	67.4	67.4	67.4	75	59.2	0	1	68	0.00	29.826 
18:45	67.4	67.4	67.4	75	59.2	0	1	68	0.00	29.823 
18:50	67.4	67.4	67.4	75	59.2	0	2	68	0.00	29.820 
18:55	67.4	67.4	67.4	75	59.2	0	2	68	0.00	29.819 
19:00	67.3	67.3	67.3	76	59.5	0	2	68	0.00	29.821 
19:05	67.3	67.3	67.3	76	59.5	0	2	68	0.00	29.819 
19:10	67.3	67.3	67.3	76	59.5	1	2	68	0.00	29.820 
19:15	67.3	67.3	67.3	77	59.8	0	1	68	0.00	29.820 
19:20	67.3	67.3	67.3	77	59.8	1	3	68	0.00	29.816 
19:25	67.4	67.4	67.4	77	59.9	1	3	90	0.00	29.810 
19:30	67.4	67.4	67.4	77	59.9	2	4	90	0.00	29.806 
19:35	67.6	67.6	67.6	77	60.1	1	5	68	0.00	29.804 
19:40	67.4	67.4	67.4	77	59.9	1	2	68	0.00	29.806 
19:45	67.3	67.3	67.3	77	59.8	1	2	68	0.00	29.805 
19:50	67.3	67.3	67.3	77	59.8	1	3	68	0.00	29.805 
19:55	67.3	67.3	67.3	78	60.2	1	4	90	0.00	29.805 
20:00	67.3	67.3	67.3	78	60.2	1	4	90	0.00	29.799 
20:05	67.1	67.1	67.1	78	60.0	1	3	68	0.00	29.792 
20:10	67.1	67.1	67.1	78	60.0	0	3	68	0.00	29.793 
20:15	67.1	67.1	67.1	78	60.0	0	1	68	0.00	29.791 
20:20	67.1	67.1	67.1	78	60.0	1	3	68	0.00	29.785 
20:25	67.1	67.1	67.1	78	60.0	2	4	90	0.00	29.783 
20:30	67.1	67.1	67.1	78	60.0	1	3	90	0.00	29.782 
20:35	67.1	67.1	67.1	78	60.0	1	3	90	0.00	29.783 
20:40	66.9	66.9	66.9	78	59.8	1	3	90	0.00	29.788 
20:45	66.8	66.8	66.8	78	59.7	0	1	90	0.00	29.789 
20:50	66.6	66.6	66.6	79	59.9	1	3	90	0.00	29.785 
20:55	66.4	66.4	66.4	79	59.7	1	5	90	0.00	29.785 
21:00	66.4	66.4	66.4	79	59.7	2	4	112	0.00	29.782 
21:05	66.4	66.4	66.4	79	59.7	1	7	112	0.00	29.778 
21:10	66.4	66.4	66.4	79	59.7	1	5	112	0.00	29.779 
21:15	66.6	66.6	66.6	79	59.9	1	4	112	0.00	29.776 
21:20	66.6	66.6	66.6	79	59.9	2	5	112	0.00	29.767 
21:25	66.6	66.6	66.6	79	59.9	2	7	90	0.00	29.767 
21:30	66.6	66.6	66.6	80	60.2	2	4	90	0.00	29.765 
21:35	66.6	66.6	66.6	80	60.2	2	6	112	0.00	29.761 
21:40	66.6	66.6	66.6	81	60.6	2	7	90	0.00	29.761 
21:45	66.4	66.4	66.4	81	60.4	2	6	90	0.00	29.758 
21:50	66.4	66.4	66.4	81	60.4	1	4	90	0.00	29.757 
21:55	66.3	66.3	66.3	82	60.6	1	3	112	0.00	29.754 
22:00	66.3	66.3	66.3	83	61.0	2	6	112	0.00	29.748 
22:05	66.3	66.3	66.3	83	61.0	2	4	90	0.00	29.744 
22:10	66.3	66.3	66.3	83	61.0	2	6	90	0.00	29.742 
22:15	66.3	66.3	66.3	83	61.0	2	6	112	0.00	29.737 
22:20	66.3	66.3	66.3	84	61.3	2	6	112	0.00	29.733 
22:25	66.3	66.3	66.3	84	61.3	2	4	135	0.00	29.732 
22:30	66.3	66.3	66.3	84	61.3	2	5	135	0.00	29.732 
22:35	66.3	66.3	66.3	84	61.3	2	4	90	0.00	29.730 
22:40	66.3	66.3	66.3	84	61.3	1	5	90	0.00	29.729 
22:45	66.3	66.3	66.3	84	61.3	2	5	112	0.00	29.726 
22:50	66.4	66.4	66.4	84	61.4	2	9	135	0.00	29.724 
22:55	66.4	66.4	66.4	84	61.4	1	5	112	0.00	29.728 
23:00	66.4	66.4	66.4	85	61.7	1	3	90	0.00	29.727 
23:05	66.4	66.4	66.4	85	61.7	1	4	112	0.00	29.722 
23:10	66.4	66.4	66.4	85	61.7	2	5	90	0.00	29.717 
23:15	66.4	66.4	66.4	85	61.7	1	5	90	0.00	29.714 
23:20	66.4	66.4	66.4	85	61.7	2	5	90	0.00	29.713 
23:25	66.4	66.4	66.4	84	61.4	2	4	90	0.00	29.711 
23:30	66.4	66.4	66.4	85	61.7	2	4	90	0.00	29.709 
23:35	66.6	66.6	66.6	84	61.6	1	5	112	0.00	29.709 
23:40	66.6	66.6	66.6	84	61.6	2	6	112	0.00	29.702 
23:45	66.8	66.8	66.8	84	61.8	1	3	112	0.00	29.701 
23:50	66.8	66.8	66.8	84	61.8	2	4	112	0.00	29.696 
23:55	66.8	66.8	66.8	84	61.8	1	5	90	0.00	29.695 

CoCoRaHS
IN-AL-39
A2 Web Hosting
Creative Commons License
GoDaddy
Look for:

loaded 2017-10-18 22:11:07 • last modified 2010-11-18 10:43:29
Privacy PolicyDisclaimer
• wx.awcolley.com is powered by PmWiki v.2002016 •
• all content (unless otherwise noted) © 2017 A W Colley